createdAt,value
2018-08-11T00:00:46.990Z,18.40
2018-08-11T00:03:16.293Z,18.40
2018-08-11T00:05:45.603Z,18.40
2018-08-11T00:08:14.981Z,18.40
2018-08-11T00:10:44.453Z,18.40
2018-08-11T00:13:13.759Z,18.40
2018-08-11T00:15:43.205Z,18.40
2018-08-11T00:18:12.473Z,18.40
2018-08-11T00:20:41.786Z,18.40
2018-08-11T00:23:11.208Z,18.40
2018-08-11T00:25:40.601Z,18.40
2018-08-11T00:28:10.101Z,18.40
2018-08-11T00:30:39.525Z,18.40
2018-08-11T00:33:08.849Z,18.40
2018-08-11T00:35:38.237Z,18.40
2018-08-11T00:38:07.677Z,18.40
2018-08-11T00:40:37.077Z,18.40
2018-08-11T00:43:06.490Z,18.40
2018-08-11T00:45:35.817Z,18.40
2018-08-11T00:48:05.399Z,18.40
2018-08-11T00:50:35.999Z,18.40
2018-08-11T00:53:06.381Z,18.40
2018-08-11T00:55:35.689Z,18.40
2018-08-11T00:58:05.081Z,18.40
2018-08-11T01:00:34.414Z,18.40
2018-08-11T01:03:03.817Z,18.30
2018-08-11T01:05:33.132Z,18.30
2018-08-11T01:08:02.462Z,18.20
2018-08-11T01:10:32.048Z,18.20
2018-08-11T01:13:01.361Z,18.20
2018-08-11T01:15:30.709Z,18.20
2018-08-11T01:18:00.006Z,18.20
2018-08-11T01:20:29.369Z,18.20
2018-08-11T01:22:58.677Z,18.20
2018-08-11T01:25:28.033Z,18.20
2018-08-11T01:27:57.290Z,18.20
2018-08-11T01:30:26.629Z,18.10
2018-08-11T01:32:56.003Z,18.10
2018-08-11T01:35:25.209Z,18.10
2018-08-11T01:37:54.534Z,18.00
2018-08-11T01:40:23.798Z,18.00
2018-08-11T01:42:53.166Z,18.00
2018-08-11T01:45:22.495Z,18.00
2018-08-11T01:47:51.864Z,18.00
2018-08-11T01:50:21.217Z,18.00
2018-08-11T01:52:50.569Z,18.00
2018-08-11T01:55:19.949Z,18.00
2018-08-11T01:57:49.238Z,18.00
2018-08-11T02:00:21.185Z,17.90
2018-08-11T02:02:50.490Z,17.90
2018-08-11T02:05:19.805Z,17.90
2018-08-11T02:07:49.129Z,17.80
2018-08-11T02:10:20.319Z,17.80
2018-08-11T02:12:49.798Z,17.80
2018-08-11T02:15:19.113Z,17.70
2018-08-11T02:17:48.378Z,17.70
2018-08-11T02:20:18.993Z,17.70
2018-08-11T02:22:49.323Z,17.70
2018-08-11T02:25:18.735Z,17.70
2018-08-11T02:27:48.021Z,17.70
2018-08-11T02:30:18.481Z,17.70
2018-08-11T02:32:47.947Z,17.70
2018-08-11T02:35:17.352Z,17.70
2018-08-11T02:37:46.603Z,17.60
2018-08-11T02:40:16.974Z,17.60
2018-08-11T02:42:46.305Z,17.60
2018-08-11T02:45:17.011Z,17.60
2018-08-11T02:47:47.188Z,17.60
2018-08-11T02:50:16.493Z,17.70
2018-08-11T02:52:45.875Z,17.70
2018-08-11T02:55:15.174Z,17.70
2018-08-11T02:57:44.446Z,17.70
2018-08-11T03:00:13.957Z,17.70
2018-08-11T03:02:43.213Z,17.80
2018-08-11T03:05:12.533Z,17.80
2018-08-11T03:07:41.786Z,17.80
2018-08-11T03:10:12.371Z,17.80
2018-08-11T03:12:42.084Z,17.90
2018-08-11T03:15:12.669Z,17.90
2018-08-11T03:17:42.270Z,17.90
2018-08-11T03:20:13.342Z,17.90
2018-08-11T03:22:42.826Z,17.90
2018-08-11T03:25:12.229Z,17.90
2018-08-11T03:27:41.566Z,17.90
2018-08-11T03:30:11.457Z,17.90
2018-08-11T03:32:40.694Z,18.00
2018-08-11T03:35:09.960Z,17.90
2018-08-11T03:37:39.164Z,17.90
2018-08-11T03:40:09.969Z,17.90
2018-08-11T03:42:39.329Z,17.90
2018-08-11T03:45:08.665Z,17.90
2018-08-11T03:47:37.949Z,17.90
2018-08-11T03:50:07.626Z,17.90
2018-08-11T03:52:37.128Z,17.90
2018-08-11T03:55:06.412Z,17.90
2018-08-11T03:57:35.734Z,18.00
2018-08-11T04:00:07.142Z,17.90
2018-08-11T04:02:36.424Z,17.90
2018-08-11T04:05:05.813Z,17.90
2018-08-11T04:07:35.073Z,17.90
2018-08-11T04:10:05.040Z,17.90
2018-08-11T04:12:34.309Z,17.90
2018-08-11T04:15:03.633Z,17.80
2018-08-11T04:17:38.733Z,17.80
2018-08-11T04:20:09.785Z,17.90
2018-08-11T04:22:39.021Z,17.90
2018-08-11T04:25:08.977Z,17.80
2018-08-11T04:27:38.699Z,17.80
2018-08-11T04:30:09.508Z,17.80
2018-08-11T04:32:38.780Z,17.80
2018-08-11T04:35:08.280Z,17.80
2018-08-11T04:37:37.485Z,17.80
2018-08-11T04:40:06.873Z,17.80
2018-08-11T04:42:36.172Z,17.90
2018-08-11T04:45:06.212Z,17.90
2018-08-11T04:47:35.488Z,18.00
2018-08-11T04:50:05.373Z,18.00
2018-08-11T04:52:34.868Z,18.40
2018-08-11T04:55:04.360Z,18.60
2018-08-11T04:57:33.640Z,18.70
2018-08-11T05:00:02.844Z,18.70
2018-08-11T05:02:32.119Z,18.60
2018-08-11T05:05:01.409Z,18.50
2018-08-11T05:07:30.621Z,18.50
2018-08-11T05:10:00.433Z,18.50
2018-08-11T05:12:29.765Z,18.60
2018-08-11T05:14:59.114Z,18.60
2018-08-11T05:17:28.396Z,18.70
2018-08-11T05:19:58.373Z,18.70
2018-08-11T05:22:27.619Z,18.70
2018-08-11T05:24:56.901Z,18.80
2018-08-11T05:27:26.294Z,18.80
2018-08-11T05:29:55.577Z,18.90
2018-08-11T05:32:24.808Z,19.00
2018-08-11T05:34:54.714Z,19.10
2018-08-11T05:37:24.014Z,19.30
2018-08-11T05:39:53.280Z,19.30
2018-08-11T05:42:22.552Z,19.40
2018-08-11T05:44:51.852Z,19.40
2018-08-11T05:47:21.188Z,19.40
2018-08-11T05:49:50.513Z,19.40
2018-08-11T05:52:19.784Z,19.40
2018-08-11T05:54:49.073Z,19.50
2018-08-11T05:57:18.361Z,19.60
2018-08-11T05:59:47.693Z,19.60
2018-08-11T06:02:16.957Z,19.70
2018-08-11T06:04:46.196Z,19.70
2018-08-11T06:07:15.476Z,19.70
2018-08-11T06:09:44.709Z,19.80
2018-08-11T06:12:14.001Z,19.80
2018-08-11T06:14:43.215Z,19.80
2018-08-11T06:17:12.471Z,19.90
2018-08-11T06:19:41.703Z,19.90
2018-08-11T06:22:10.998Z,20.00
2018-08-11T06:24:40.212Z,20.10
2018-08-11T06:27:09.505Z,20.10
2018-08-11T06:29:38.802Z,20.10
2018-08-11T06:32:08.227Z,20.00
2018-08-11T06:34:37.445Z,19.90
2018-08-11T06:37:07.001Z,20.00
2018-08-11T06:39:36.218Z,20.00
2018-08-11T06:42:05.485Z,20.00
2018-08-11T06:44:34.749Z,20.00
2018-08-11T06:47:04.039Z,20.00
2018-08-11T06:49:33.369Z,20.00
2018-08-11T06:52:02.633Z,19.90
2018-08-11T06:54:31.916Z,19.90
2018-08-11T06:57:01.157Z,19.80
2018-08-11T06:59:30.449Z,19.80
2018-08-11T07:02:00.049Z,19.90
2018-08-11T07:04:29.321Z,19.90
2018-08-11T07:06:58.636Z,20.00
2018-08-11T07:09:29.056Z,20.00
2018-08-11T07:11:58.325Z,20.00
2018-08-11T07:14:27.608Z,20.00
2018-08-11T07:16:56.877Z,19.90
2018-08-11T07:19:26.157Z,20.00
2018-08-11T07:21:55.426Z,20.00
2018-08-11T07:24:24.636Z,20.00
2018-08-11T07:26:53.909Z,20.10
2018-08-11T07:29:23.131Z,20.10
2018-08-11T07:31:52.405Z,20.10
2018-08-11T07:34:21.669Z,20.20
2018-08-11T07:36:50.949Z,20.20
2018-08-11T07:39:20.262Z,20.20
2018-08-11T07:41:49.601Z,20.20
2018-08-11T07:44:18.861Z,20.20
2018-08-11T07:46:48.149Z,20.30
2018-08-11T07:49:17.498Z,20.30
2018-08-11T07:51:46.861Z,20.40
2018-08-11T07:54:16.110Z,20.30
2018-08-11T07:56:45.465Z,20.40
2018-08-11T07:59:14.705Z,20.40
2018-08-11T08:01:44.009Z,20.50
2018-08-11T08:04:13.301Z,20.50
2018-08-11T08:06:42.573Z,20.50
2018-08-11T08:09:13.569Z,20.40
2018-08-11T08:11:43.261Z,20.40
2018-08-11T08:14:13.200Z,20.40
2018-08-11T08:16:42.421Z,20.40
2018-08-11T08:19:11.654Z,20.50
2018-08-11T08:21:40.941Z,20.60
2018-08-11T08:24:10.236Z,20.70
2018-08-11T08:26:39.578Z,20.70
2018-08-11T08:29:08.929Z,20.90
2018-08-11T08:31:38.172Z,21.00
2018-08-11T08:34:07.586Z,21.10
2018-08-11T08:36:36.856Z,21.20
2018-08-11T08:39:09.288Z,21.30
2018-08-11T08:41:38.550Z,21.40
2018-08-11T08:44:07.958Z,21.40
2018-08-11T08:46:37.181Z,21.40
2018-08-11T08:49:06.585Z,21.40
2018-08-11T08:51:35.851Z,21.50
2018-08-11T08:54:05.189Z,21.50
2018-08-11T08:56:34.422Z,21.50
2018-08-11T08:59:04.063Z,21.60
2018-08-11T09:01:33.668Z,21.60
2018-08-11T09:04:02.969Z,21.70
2018-08-11T09:06:32.269Z,21.80
2018-08-11T09:09:01.551Z,21.80
2018-08-11T09:11:30.866Z,21.90
2018-08-11T09:14:00.163Z,21.90
2018-08-11T09:16:29.463Z,22.00
2018-08-11T09:18:58.705Z,22.00
2018-08-11T09:21:28.051Z,22.10
2018-08-11T09:23:57.297Z,22.20
2018-08-11T09:26:26.585Z,22.30
2018-08-11T09:28:55.869Z,22.30
2018-08-11T09:31:25.157Z,22.40
2018-08-11T09:33:54.434Z,22.40
2018-08-11T09:36:23.741Z,22.40
2018-08-11T09:38:53.054Z,22.50
2018-08-11T09:41:22.301Z,22.60
2018-08-11T09:43:51.701Z,22.80
2018-08-11T09:46:20.969Z,22.80
2018-08-11T09:48:50.302Z,23.00
2018-08-11T09:51:19.616Z,23.10
2018-08-11T09:53:48.902Z,23.30
2018-08-11T09:56:18.165Z,23.40
2018-08-11T09:58:47.595Z,23.50
2018-08-11T10:01:21.782Z,23.60
2018-08-11T10:03:51.129Z,23.70
2018-08-11T10:06:20.369Z,23.70
2018-08-11T10:08:49.657Z,23.80
2018-08-11T10:11:18.922Z,23.90
2018-08-11T10:13:48.208Z,24.10
2018-08-11T10:16:17.422Z,24.10
2018-08-11T10:18:57.062Z,24.20
2018-08-11T10:21:26.350Z,24.40
2018-08-11T10:23:55.644Z,24.60
2018-08-11T10:26:25.122Z,24.70
2018-08-11T10:28:54.427Z,24.90
2018-08-11T10:31:23.777Z,25.20
2018-08-11T10:33:53.017Z,25.30
2018-08-11T10:36:22.333Z,25.30
2018-08-11T10:38:51.565Z,25.40
2018-08-11T10:41:20.919Z,25.60
2018-08-11T10:43:50.684Z,25.70
2018-08-11T10:46:19.963Z,25.60
2018-08-11T10:48:49.261Z,25.40
2018-08-11T10:51:18.642Z,25.60
2018-08-11T10:53:47.920Z,26.20
2018-08-11T10:56:17.322Z,26.60
2018-08-11T10:58:46.570Z,27.00
2018-08-11T11:01:15.869Z,27.00
2018-08-11T11:03:45.405Z,27.30
2018-08-11T11:06:14.709Z,27.40
2018-08-11T11:08:44.229Z,27.30
2018-08-11T11:11:13.663Z,27.70
2018-08-11T11:13:42.949Z,27.90
2018-08-11T11:16:12.264Z,28.10
2018-08-11T11:18:41.564Z,28.20
2018-08-11T11:21:10.872Z,28.20
2018-08-11T11:23:40.158Z,28.40
2018-08-11T11:26:09.506Z,28.30
2018-08-11T11:28:38.777Z,28.30
2018-08-11T11:31:08.054Z,28.30
2018-08-11T11:33:37.309Z,28.60
2018-08-11T11:36:06.633Z,29.00
2018-08-11T11:38:35.849Z,29.10
2018-08-11T11:41:05.193Z,29.40
2018-08-11T11:43:34.449Z,29.50
2018-08-11T11:46:03.793Z,29.80
2018-08-11T11:48:33.059Z,30.10
2018-08-11T11:51:02.349Z,30.20
2018-08-11T11:53:31.654Z,30.20
2018-08-11T11:56:00.950Z,30.30
2018-08-11T11:58:30.244Z,30.50
2018-08-11T12:00:59.569Z,30.30
2018-08-11T12:03:28.798Z,30.00
2018-08-11T12:05:58.175Z,30.20
2018-08-11T12:08:27.421Z,30.70
2018-08-11T12:10:56.698Z,31.00
2018-08-11T12:13:25.988Z,31.10
2018-08-11T12:15:55.213Z,31.20
2018-08-11T12:18:24.473Z,30.90
2018-08-11T12:20:53.709Z,30.50
2018-08-11T12:23:23.008Z,30.40
2018-08-11T12:25:52.285Z,30.40
2018-08-11T12:28:21.607Z,30.70
2018-08-11T12:30:50.897Z,31.30
2018-08-11T12:33:20.133Z,31.50
2018-08-11T12:35:49.494Z,31.50
2018-08-11T12:38:18.736Z,30.90
2018-08-11T12:40:48.065Z,30.40
2018-08-11T12:43:17.353Z,30.20
2018-08-11T12:45:46.667Z,29.90
2018-08-11T12:48:15.885Z,29.50
2018-08-11T12:50:45.200Z,29.30
2018-08-11T12:53:14.437Z,29.20
2018-08-11T12:55:43.725Z,29.00
2018-08-11T12:58:12.990Z,29.00
2018-08-11T13:00:42.279Z,29.10
2018-08-11T13:03:11.532Z,29.60
2018-08-11T13:05:40.816Z,30.00
2018-08-11T13:08:10.141Z,30.30
2018-08-11T13:10:39.465Z,30.60
2018-08-11T13:13:08.737Z,30.90
2018-08-11T13:15:38.076Z,31.20
2018-08-11T13:18:07.412Z,31.10
2018-08-11T13:20:36.704Z,31.20
2018-08-11T13:23:05.989Z,31.60
2018-08-11T13:25:35.225Z,31.90
2018-08-11T13:28:04.515Z,32.00
2018-08-11T13:30:33.745Z,32.20
2018-08-11T13:33:03.017Z,32.20
2018-08-11T13:35:32.241Z,32.10
2018-08-11T13:38:01.551Z,32.00
2018-08-11T13:40:30.762Z,32.10
2018-08-11T13:43:00.066Z,32.10
2018-08-11T13:45:29.403Z,31.90
2018-08-11T13:47:58.720Z,31.80
2018-08-11T13:50:28.082Z,32.10
2018-08-11T13:52:57.428Z,32.20
2018-08-11T13:55:26.679Z,32.00
2018-08-11T13:57:55.890Z,32.00
2018-08-11T14:00:25.204Z,32.30
2018-08-11T14:02:54.434Z,32.00
2018-08-11T14:05:23.734Z,31.50
2018-08-11T14:07:52.961Z,31.10
2018-08-11T14:10:22.254Z,30.90
2018-08-11T14:12:51.517Z,30.70
2018-08-11T14:15:20.794Z,30.60
2018-08-11T14:17:50.025Z,30.50
2018-08-11T14:20:19.379Z,30.30
2018-08-11T14:22:48.604Z,30.10
2018-08-11T14:25:17.885Z,30.00
2018-08-11T14:27:47.172Z,30.10
2018-08-11T14:30:16.473Z,30.10
2018-08-11T14:32:45.778Z,30.50
2018-08-11T14:35:15.030Z,30.40
2018-08-11T14:37:44.337Z,30.50
2018-08-11T14:40:13.704Z,30.20
2018-08-11T14:42:48.229Z,29.90
2018-08-11T14:45:17.566Z,29.70
2018-08-11T14:47:46.814Z,29.50
2018-08-11T14:50:16.186Z,29.40
2018-08-11T14:52:45.421Z,29.10
2018-08-11T14:55:14.712Z,28.90
2018-08-11T14:57:44.013Z,28.50
2018-08-11T15:00:14.289Z,28.20
2018-08-11T15:02:43.553Z,27.90
2018-08-11T15:05:12.926Z,27.80
2018-08-11T15:07:42.284Z,27.60
2018-08-11T15:10:11.732Z,27.50
2018-08-11T15:12:41.002Z,27.20
2018-08-11T15:15:11.313Z,27.10
2018-08-11T15:17:41.624Z,27.10
2018-08-11T15:20:11.187Z,27.00
2018-08-11T15:22:40.849Z,27.10
2018-08-11T15:25:10.609Z,27.10
2018-08-11T15:27:40.358Z,27.10
2018-08-11T15:30:11.877Z,27.10
2018-08-11T15:32:41.334Z,27.00
2018-08-11T15:35:10.733Z,27.00
2018-08-11T15:37:40.039Z,27.00
2018-08-11T15:40:09.289Z,26.80
2018-08-11T15:42:38.594Z,26.70
2018-08-11T15:45:08.540Z,26.60
2018-08-11T15:47:38.067Z,26.70
2018-08-11T15:50:07.449Z,26.80
2018-08-11T15:52:37.063Z,26.90
2018-08-11T15:55:06.675Z,27.10
2018-08-11T15:57:35.937Z,27.30
2018-08-11T16:00:06.044Z,27.40
2018-08-11T16:02:35.306Z,27.60
2018-08-11T16:05:04.621Z,27.70
2018-08-11T16:07:33.897Z,28.00
2018-08-11T16:10:03.221Z,28.60
2018-08-11T16:12:32.578Z,29.20
2018-08-11T16:15:01.861Z,29.70
2018-08-11T16:17:31.153Z,29.70
2018-08-11T16:20:00.387Z,29.90
2018-08-11T16:22:29.702Z,30.10
2018-08-11T16:24:59.008Z,30.10
2018-08-11T16:27:28.241Z,30.00
2018-08-11T16:29:57.521Z,29.90
2018-08-11T16:32:26.813Z,30.00
2018-08-11T16:34:56.129Z,30.00
2018-08-11T16:37:25.388Z,30.20
2018-08-11T16:39:54.640Z,30.30
2018-08-11T16:42:23.905Z,30.00
2018-08-11T16:44:53.173Z,29.70
2018-08-11T16:47:22.593Z,29.20
2018-08-11T16:49:51.949Z,28.90
2018-08-11T16:52:21.276Z,28.70
2018-08-11T16:54:50.555Z,28.50
2018-08-11T16:57:19.862Z,28.30
2018-08-11T16:59:49.169Z,28.20
2018-08-11T17:02:18.524Z,28.00
2018-08-11T17:04:47.789Z,27.70
2018-08-11T17:07:17.097Z,27.50
2018-08-11T17:09:46.405Z,27.20
2018-08-11T17:12:15.688Z,27.00
2018-08-11T17:14:45.055Z,26.80
2018-08-11T17:17:14.459Z,26.60
2018-08-11T17:19:43.748Z,26.40
2018-08-11T17:22:13.047Z,26.20
2018-08-11T17:24:42.354Z,26.10
2018-08-11T17:27:11.783Z,25.90
2018-08-11T17:29:41.110Z,25.80
2018-08-11T17:32:10.521Z,25.70
2018-08-11T17:34:39.886Z,25.50
2018-08-11T17:37:09.148Z,25.40
2018-08-11T17:39:38.513Z,25.30
2018-08-11T17:42:08.453Z,25.20
2018-08-11T17:44:37.834Z,25.00
2018-08-11T17:47:07.081Z,24.70
2018-08-11T17:49:36.358Z,24.70
2018-08-11T17:52:05.629Z,24.60
2018-08-11T17:54:35.191Z,24.50
2018-08-11T17:57:04.490Z,24.40
2018-08-11T17:59:33.733Z,24.30
2018-08-11T18:02:03.137Z,24.30
2018-08-11T18:04:32.481Z,24.30
2018-08-11T18:07:01.925Z,24.20
2018-08-11T18:09:31.217Z,24.10
2018-08-11T18:12:00.545Z,24.00
2018-08-11T18:14:29.793Z,23.90
2018-08-11T18:16:59.145Z,23.70
2018-08-11T18:19:28.470Z,23.70
2018-08-11T18:21:57.837Z,23.60
2018-08-11T18:24:27.098Z,23.60
2018-08-11T18:26:56.434Z,23.50
2018-08-11T18:29:26.318Z,23.50
2018-08-11T18:31:55.636Z,23.40
2018-08-11T18:34:24.981Z,23.40
2018-08-11T18:36:54.320Z,23.40
2018-08-11T18:39:23.736Z,23.40
2018-08-11T18:41:53.055Z,23.30
2018-08-11T18:44:22.401Z,23.30
2018-08-11T18:46:51.732Z,23.20
2018-08-11T18:49:21.401Z,23.10
2018-08-11T18:51:56.439Z,23.00
2018-08-11T18:58:33.651Z,22.90
2018-08-11T19:01:03.266Z,22.80
2018-08-11T19:03:32.654Z,22.60
2018-08-11T19:06:02.163Z,22.60
2018-08-11T19:08:31.798Z,22.50
2018-08-11T19:11:01.260Z,22.40
2018-08-11T19:13:30.582Z,22.40
2018-08-11T19:15:59.950Z,22.40
2018-08-11T19:18:29.418Z,22.40
2018-08-11T19:20:58.745Z,22.40
2018-08-11T19:23:28.141Z,22.40
2018-08-11T19:25:57.882Z,22.40
2018-08-11T19:28:27.277Z,22.30
2018-08-11T19:30:56.944Z,22.20
2018-08-11T19:33:26.379Z,22.20
2018-08-11T19:35:56.576Z,22.10
2018-08-11T19:38:30.147Z,22.00
2018-08-11T19:41:02.547Z,22.00
2018-08-11T19:43:36.709Z,22.00
2018-08-11T19:46:11.105Z,22.00
2018-08-11T19:48:41.092Z,22.00
2018-08-11T19:51:12.938Z,21.90
2018-08-11T19:53:43.294Z,21.90
2018-08-11T20:00:53.515Z,21.90
2018-08-11T20:03:27.231Z,21.90
2018-08-11T20:05:56.863Z,21.90
2018-08-11T20:08:26.980Z,21.90
2018-08-11T20:10:59.069Z,21.90
2018-08-11T20:13:31.212Z,21.90
2018-08-11T20:16:03.482Z,21.90
2018-08-11T20:18:33.686Z,21.90
2018-08-11T20:21:03.392Z,21.80
2018-08-11T20:23:33.633Z,21.70
2018-08-11T20:26:04.488Z,21.70
2018-08-11T20:28:34.247Z,21.70
2018-08-11T20:31:03.888Z,21.70
2018-08-11T20:33:33.596Z,21.70
2018-08-11T20:36:03.020Z,21.80
2018-08-11T20:38:32.491Z,21.80
2018-08-11T20:41:01.928Z,21.80
2018-08-11T20:43:31.385Z,21.80
2018-08-11T20:46:00.836Z,21.80
2018-08-11T20:50:38.841Z,21.70
2018-08-11T20:53:08.415Z,21.70
2018-08-11T20:55:38.008Z,21.60
2018-08-11T20:58:07.400Z,21.60
2018-08-11T21:00:36.907Z,21.60
2018-08-11T21:03:09.156Z,21.60
2018-08-11T21:05:38.610Z,21.50
2018-08-11T21:08:08.459Z,21.50
2018-08-11T21:10:37.995Z,21.50
2018-08-11T21:13:07.695Z,21.50
2018-08-11T21:15:37.104Z,21.40
2018-08-11T21:18:06.585Z,21.40
2018-08-11T21:20:36.040Z,21.30
2018-08-11T21:23:05.507Z,21.30
2018-08-11T21:25:34.958Z,21.30
2018-08-11T21:28:04.439Z,21.30
2018-08-11T21:30:33.824Z,21.20
2018-08-11T21:33:03.267Z,21.20
2018-08-11T21:35:32.703Z,21.10
2018-08-11T21:38:02.108Z,21.10
2018-08-11T21:40:31.536Z,21.10
2018-08-11T21:43:00.984Z,21.10
2018-08-11T21:45:30.424Z,21.00
2018-08-11T21:47:59.876Z,21.00
2018-08-11T21:50:29.349Z,21.00
2018-08-11T21:52:58.735Z,20.90
2018-08-11T21:55:28.149Z,20.90
2018-08-11T21:57:57.563Z,20.90
2018-08-11T22:00:37.037Z,20.80
2018-08-11T22:03:07.817Z,20.80
2018-08-11T22:05:37.195Z,20.70
2018-08-11T22:08:06.659Z,20.70
2018-08-11T22:10:36.416Z,20.60
2018-08-11T22:13:05.770Z,20.60
2018-08-11T22:15:35.139Z,20.50
2018-08-11T22:18:04.614Z,20.50
2018-08-11T22:20:33.972Z,20.50
2018-08-11T22:23:03.615Z,20.40
2018-08-11T22:25:32.987Z,20.30
2018-08-11T22:28:02.643Z,20.20
2018-08-11T22:30:32.112Z,20.20
2018-08-11T22:33:01.574Z,20.10
2018-08-11T22:35:30.900Z,20.10
2018-08-11T22:38:00.221Z,20.10
2018-08-11T22:40:29.542Z,20.00
2018-08-11T22:42:59.822Z,20.00
2018-08-11T22:45:29.133Z,20.00
2018-08-11T22:47:58.562Z,20.00
2018-08-11T22:50:27.895Z,20.00
2018-08-11T22:52:57.334Z,20.00
2018-08-11T22:55:26.598Z,20.00
2018-08-11T22:57:55.897Z,20.00
2018-08-11T23:00:25.224Z,19.90
2018-08-11T23:07:32.794Z,19.90
2018-08-11T23:10:02.124Z,19.80
2018-08-11T23:12:31.377Z,19.80
2018-08-11T23:15:01.015Z,19.70
2018-08-11T23:17:30.363Z,19.70
2018-08-11T23:19:59.699Z,19.70
2018-08-11T23:22:29.051Z,19.70
2018-08-11T23:24:58.396Z,19.70
2018-08-11T23:27:27.781Z,19.70
2018-08-11T23:29:57.258Z,19.60
2018-08-11T23:32:26.590Z,19.60
2018-08-11T23:34:56.070Z,19.60
2018-08-11T23:37:25.539Z,19.60
2018-08-11T23:39:54.983Z,19.70
2018-08-11T23:42:24.410Z,19.70
2018-08-11T23:44:53.913Z,19.60
2018-08-11T23:47:23.370Z,19.60
2018-08-11T23:49:52.818Z,19.60
2018-08-11T23:52:22.341Z,19.60
2018-08-11T23:54:51.794Z,19.60
2018-08-11T23:57:21.134Z,19.50
2018-08-11T23:59:50.503Z,19.50
